Gryphon A — MQSY9 — position and weather

sailwx.info

Track history (hours):
 
Tides and Currents Weather Stations Pressure Air Temp Water Temp Dewpoint Dewpoint Depression Visibility Wind Speed Wind Dir Waves Ship Positions

Gryphon A

Last reported at 2018-Feb-24 21:00 UTC. Time now 2018-Feb-24 22:15 UTC.
Position N 59°18' E 001°30'.

Length 260 m; draft 13.5 m.

Type: Ship (hazmat cat A). MMSI: 235010630.

Wind from 160 at 20 knots

Air temperature 4.5 ° C
Visibility: greater than 10.8 NM
Dewpoint 0.3 ° C

Date/timePositionNaut miles runAvg speedWind from/ knotsBaromVisibWave heightAir tempDewpointWater temp
2018-Feb-24 21:00N 59°18' E 001°30'0 0.0 160 / 20 10.8 4.5 0.3
2018-Feb-24 20:00N 59°18' E 001°30'0 0.0 160 / 20 10.8 4.5 0.3
2018-Feb-24 19:00N 59°18' E 001°30'0 0.0 150 / 22 10.8 4.5 0.3
2018-Feb-24 18:00N 59°18' E 001°30'0 0.0 160 / 21 10.8 4.8 0.2
2018-Feb-24 17:00N 59°18' E 001°30'0 0.0 160 / 21 10.8 5.1-0.1
2018-Feb-24 16:00N 59°18' E 001°30'0 0.0 170 / 22 10.8 5.4 0.2
2018-Feb-24 15:00N 59°18' E 001°30'0 0.0 170 / 23 10.8 5.4 0.1
2018-Feb-24 14:00N 59°18' E 001°30'0 0.0 170 / 21 10.8 5.5 0.1
2018-Feb-24 13:00N 59°18' E 001°30'0 0.0 170 / 22 10.8 5.5 0.2
2018-Feb-24 12:00N 59°18' E 001°30'0 0.0 180 / 22 10.8 5.4 0.2
2018-Feb-24 11:00N 59°18' E 001°30'0 0.0 170 / 23 10.8 5.3 0.2
2018-Feb-24 10:00N 59°18' E 001°30'0 0.0 170 / 24 10.8 5.3 0.4
2018-Feb-24 09:00N 59°18' E 001°30'0 0.0 160 / 23 10.8 5.3 0.3
2018-Feb-24 08:00N 59°18' E 001°30'0 0.0 160 / 22 10.8 5.2 0.2
2018-Feb-24 07:00N 59°18' E 001°30'0 0.0 160 / 22 10.8 5.0 0.2
2018-Feb-24 06:00N 59°18' E 001°30'0 0.0 160 / 22 10.8 5.1 0.4
2018-Feb-24 05:00N 59°18' E 001°30'0 0.0 160 / 22 27.0 5.2 0.7
2018-Feb-24 04:00N 59°18' E 001°30'0 0.0 160 / 20 27.0 5.3 0.9
2018-Feb-24 03:00N 59°18' E 001°30'0 0.0 180 / 21 27.0 5.4 1.1
2018-Feb-24 02:00N 59°18' E 001°30'0 0.0 160 / 19 27.0 5.3 0.9
2018-Feb-24 01:00N 59°18' E 001°30'0 0.0
2018-Feb-24 00:00N 59°18' E 001°30'0 0.0
2018-Feb-23 23:00N 59°18' E 001°30'0 0.0 170 / 20 27.0 5.7 0.7
2018-Feb-23 22:00N 59°18' E 001°30'0 0.0 170 / 19 27.0 5.7 0.8
2018-Feb-23 21:00N 59°18' E 001°30'0 0.0 170 / 19 10.8 5.8 1.1
2018-Feb-23 20:00N 59°18' E 001°30'0 0.0 180 / 18 10.8 5.8 1.0
2018-Feb-23 19:00N 59°18' E 001°30'0 0.0 180 / 18 27.0 5.9 1.0
2018-Feb-23 18:00N 59°18' E 001°30'0 0.0 190 / 20 10.8 5.8 0.9
2018-Feb-23 17:00N 59°18' E 001°30'0 0.0 200 / 21 10.8 5.7 0.9
2018-Feb-23 16:00N 59°18' E 001°30'0 0.0 200 / 23 10.8 5.7 0.9
2018-Feb-23 15:00N 59°18' E 001°30'0 0.0 190 / 22 10.8 5.6 0.9
2018-Feb-23 14:00N 59°18' E 001°30'0 0.0 190 / 24 10.8 5.7 1.0
2018-Feb-23 13:00N 59°18' E 001°30'0 0.0 190 / 25 10.8 5.7 1.0
2018-Feb-23 12:00N 59°18' E 001°30'0 0.0 200 / 26 10.8 5.7 1.1
2018-Feb-23 11:00N 59°18' E 001°30'0 0.0 190 / 25 10.8 5.7 1.2
2018-Feb-23 10:00N 59°18' E 001°30'0 0.0 190 / 23 10.8 5.7 1.2
2018-Feb-23 09:00N 59°18' E 001°30'0 0.0 190 / 22 10.8 5.7 1.2
2018-Feb-23 08:00N 59°18' E 001°30'0 0.0 190 / 22 10.8 5.6 1.2
2018-Feb-23 07:00N 59°18' E 001°30'0 0.0 190 / 22 10.8 5.6 1.2
2018-Feb-23 06:00N 59°18' E 001°30'0 0.0 190 / 20 10.8 5.6 1.2
2018-Feb-23 05:00N 59°18' E 001°30'0 0.0 200 / 21 10.8 5.5 1.1
2018-Feb-23 04:00N 59°18' E 001°30'0 0.0 200 / 21 27.0 5.5 1.0
2018-Feb-23 03:00N 59°18' E 001°30'0 0.0 190 / 21 10.8 5.6 1.2
2018-Feb-23 02:00N 59°18' E 001°30'0 0.0 210 / 22 10.8 5.5 1.7
2018-Feb-23 01:00N 59°18' E 001°30'0 0.0 190 / 24 5.4 5.2 1.6
2018-Feb-23 00:00N 59°18' E 001°30'0 0.0 190 / 21 27.0 5.4 1.9
2018-Feb-22 23:00N 59°18' E 001°30'0 0.0 180 / 21 10.8 5.3 1.7
2018-Feb-22 22:00N 59°18' E 001°30'0 0.0 170 / 20 10.8 5.4 1.6
2018-Feb-22 21:00N 59°18' E 001°30'0 0.0 180 / 19 10.8 5.4 1.5
2018-Feb-22 20:00N 59°18' E 001°30'0 0.0 180 / 20 10.8 5.1 1.3
2018-Feb-22 19:00N 59°18' E 001°30'0 0.0 170 / 20 10.8 5.6 1.8
2018-Feb-22 18:00N 59°18' E 001°30'0 0.0 180 / 21 10.8 5.7 1.8
2018-Feb-22 17:00N 59°18' E 001°30'0 0.0 180 / 20 10.8 5.4 1.5
2018-Feb-22 16:00N 59°18' E 001°30'0 0.0 180 / 16 10.8 5.3 1.2
2018-Feb-22 15:00N 59°18' E 001°30'0 0.0 190 / 16 5.4 5.8 1.4
2018-Feb-22 14:00N 59°18' E 001°30'0 0.0 180 / 18 10.8 5.8 1.5
2018-Feb-22 13:00N 59°18' E 001°30'0 0.0 180 / 18 10.8 5.8 1.6
2018-Feb-22 12:00N 59°18' E 001°30'0 0.0 180 / 17 10.8 5.7 1.4
2018-Feb-22 11:00N 59°18' E 001°30'0 0.0 180 / 18 10.8 5.7 1.2
2018-Feb-22 10:00N 59°18' E 001°30'0 0.0 180 / 16 27.0 5.7 1.2
2018-Feb-22 09:00N 59°18' E 001°30'0 0.0 180 / 16 27.0 5.6 1.1
2018-Feb-22 08:00N 59°18' E 001°30'0 0.0 170 / 13 27.0 5.6 1.2
2018-Feb-22 07:00N 59°18' E 001°30'0 0.0 170 / 10 27.0 5.6 1.2
2018-Feb-22 06:00N 59°18' E 001°30'0 0.0 170 / 9 10.8 5.6 1.2
2018-Feb-22 05:00N 59°18' E 001°30'0 0.0 170 / 8 27.0 5.5 1.2
2018-Feb-22 04:00N 59°18' E 001°30'0 0.0 180 / 8 10.8 5.7 1.4
2018-Feb-22 03:00N 59°18' E 001°30'0 0.0 190 / 8 10.8 5.6 1.5
2018-Feb-22 02:00N 59°18' E 001°30'0 0.0 190 / 8 10.8 5.5 1.6
2018-Feb-22 01:00N 59°18' E 001°30'0 0.0 160 / 8 10.8 5.7 1.8
2018-Feb-22 00:00N 59°18' E 001°30'0 0.0 140 / 6 10.8 5.8 1.8
2018-Feb-21 23:00N 59°18' E 001°30'0 0.0 140 / 6 10.8 5.8 1.9
2018-Feb-21 22:00N 59°18' E 001°30'0 0.0 130 / 6 10.8 5.7 1.8
2018-Feb-21 21:00N 59°18' E 001°30'0 0.0 120 / 2 10.8 5.9 2.0
2018-Feb-21 20:00N 59°18' E 001°30'0 0.0 060 / 2 27.0 5.9 1.9
2018-Feb-21 19:00N 59°18' E 001°30'0 0.0 010 / 2 27.0 5.8 1.7
2018-Feb-21 18:00N 59°18' E 001°30'0 0.0 310 / 2 10.8 5.8 1.7
2018-Feb-21 17:00N 59°18' E 001°30'0 0.0 320 / 3 27.0 6.1 1.8
2018-Feb-21 16:00N 59°18' E 001°30'0 0.0 310 / 2 10.8 6.2 1.9
2018-Feb-21 15:00N 59°18' E 001°30'0 0.0 270 / 3 27.0 5.8 1.6
2018-Feb-21 14:00N 59°18' E 001°30'0 0.0 280 / 5 27.0 5.5 1.3
2018-Feb-21 13:00N 59°18' E 001°30'0 0.0 330 / 10 10.8 6.1 1.4
2018-Feb-21 12:00N 59°18' E 001°30'0 0.0 310 / 5 27.0 6.0 1.2
2018-Feb-21 11:00N 59°18' E 001°30'0 0.0 320 / 7 27.0 5.6 1.1
2018-Feb-21 10:00N 59°18' E 001°30'0 0.0 320 / 8 27.0 6.1 1.8
2018-Feb-21 09:00N 59°18' E 001°30'0 0.0 360 / 9 27.0 6.0 1.9
2018-Feb-21 08:00N 59°18' E 001°30'0 0.0 330 / 10 10.8 6.3 2.2
2018-Feb-21 07:00N 59°18' E 001°30'0 0.0 330 / 12 10.8 6.4 2.1
2018-Feb-21 06:00N 59°18' E 001°30'0 0.0 340 / 10 10.8 6.2 2.0
2018-Feb-21 05:00N 59°18' E 001°30'0 0.0 330 / 12 10.8 6.5 2.3
2018-Feb-21 04:00N 59°18' E 001°30'0 0.0 330 / 13 10.8 6.5 2.6
2018-Feb-21 03:00N 59°18' E 001°30'0 0.0 320 / 14 10.8 6.5 3.1
2018-Feb-21 02:00N 59°18' E 001°30'0 0.0 320 / 18 10.8 6.2 3.4
2018-Feb-21 01:00N 59°18' E 001°30'0 0.0 340 / 15 5.4 6.1 3.8
2018-Feb-21 00:00N 59°18' E 001°30'0 0.0 330 / 13 5.4 6.2 4.2
2018-Feb-20 23:00N 59°18' E 001°30'0 0.0 330 / 8 5.4 6.7 4.9
2018-Feb-20 22:00N 59°18' E 001°30'0 0.0 330 / 6 5.4 6.4 4.8
2018-Feb-20 21:00N 59°18' E 001°30'0 0.0 290 / 5 10.8 6.2 4.7
2018-Feb-20 20:00N 59°18' E 001°30'0 0.0 320 / 5 10.8 5.6 4.2
2018-Feb-20 19:00N 59°18' E 001°30'0 0.0 200 / 15 10.8 5.5 4.0
2018-Feb-20 18:00N 59°18' E 001°30'0 0.0 200 / 18 5.4 5.0 3.2
2018-Feb-20 17:00N 59°18' E 001°30'0 0.0 190 / 18 1.1 4.7 2.4
2018-Feb-20 16:00N 59°18' E 001°30'0 0.0 190 / 19 5.4 4.5 1.9
2018-Feb-20 15:00N 59°18' E 001°30'0 0.0 200 / 19 5.4 4.6 2.0
2018-Feb-20 14:00N 59°18' E 001°30'0 0.0 190 / 20 10.8 4.5 2.1
2018-Feb-20 13:00N 59°18' E 001°30'0 0.0 190 / 20 10.8 4.6 2.2
2018-Feb-20 12:00N 59°18' E 001°30'0 0.0 180 / 21 5.4 4.5 2.1
2018-Feb-20 11:00N 59°18' E 001°30'0 0.0 170 / 20 2.2 4.4 1.9
2018-Feb-20 10:00N 59°18' E 001°30'0 0.0 170 / 22 2.2 4.3 1.7
2018-Feb-20 09:00N 59°18' E 001°30'0 0.0 160 / 23 2.2 4.0 1.3
2018-Feb-20 08:00N 59°18' E 001°30'0 0.0 170 / 21 2.2 3.7 0.9
2018-Feb-20 07:00N 59°18' E 001°30'0 0.0 160 / 24 2.2 3.9 0.8
2018-Feb-20 06:00N 59°18' E 001°30'0 0.0 160 / 24 2.2 4.1 0.6
2018-Feb-20 05:00N 59°18' E 001°30'0 0.0 150 / 26 5.4 4.3 0.5
2018-Feb-20 04:00N 59°18' E 001°30'0 0.0 160 / 28 5.4 4.4 0.5
2018-Feb-20 03:00N 59°18' E 001°30'0 0.0 150 / 26 5.4 4.7 0.7
2018-Feb-20 02:00N 59°18' E 001°30'0 0.0 150 / 27 10.8 4.7 0.6
2018-Feb-20 01:00N 59°18' E 001°30'0 0.0 150 / 27 10.8 4.8 0.6
2018-Feb-20 00:00N 59°18' E 001°30'0 0.0 150 / 26 10.8 4.9 0.8
2018-Feb-19 23:00N 59°18' E 001°30'0 0.0 150 / 27 10.8 5.0 1.0
2018-Feb-19 22:00N 59°18' E 001°30'0 0.0 140 / 24 10.8 4.9 1.1
2018-Feb-19 21:00N 59°18' E 001°30'0 0.0 140 / 24 10.8 4.7 1.1
2018-Feb-19 20:00N 59°18' E 001°30'0 0.0 150 / 21 10.8 4.9 1.5
2018-Feb-19 19:00N 59°18' E 001°30'0 0.0 140 / 21 10.8 5.1 1.8
2018-Feb-19 18:00N 59°18' E 001°30'0 0.0 140 / 18 10.8 5.5 2.2
2018-Feb-19 17:00N 59°18' E 001°30'0 0.0 140 / 16 10.8 5.8 2.4
2018-Feb-19 16:00N 59°18' E 001°30'0 0.0 130 / 14 10.8 5.9 2.3
2018-Feb-19 15:00N 59°18' E 001°30'0 0.0 130 / 14 10.8 6.3 2.3
2018-Feb-19 14:00N 59°18' E 001°30'0 0.0 110 / 12 27.0 5.8 1.8
2018-Feb-19 13:00N 59°18' E 001°30'0 0.0 100 / 14 27.0 5.9 2.1
2018-Feb-19 12:00N 59°18' E 001°30'0 0.0 100 / 13 27.0 5.8 2.2
2018-Feb-19 11:00N 59°18' E 001°30'0 0.0 120 / 11 27.0 5.6 2.2
2018-Feb-19 10:00N 59°18' E 001°30'0 0.0 100 / 12 27.0 5.8 2.5
2018-Feb-19 09:00N 59°18' E 001°30'0 0.0 110 / 13 27.0 5.9 2.6
2018-Feb-19 08:00N 59°18' E 001°30'0 0.0 100 / 12 27.0 6.0 2.6
2018-Feb-19 07:00N 59°18' E 001°30'0 0.0 100 / 10 10.8 6.2 2.7
2018-Feb-19 06:00N 59°18' E 001°30'0 0.0 100 / 11 27.0 6.0 2.5
2018-Feb-19 05:00N 59°18' E 001°30'0 0.0 110 / 10 27.0 6.0 2.4
2018-Feb-19 04:00N 59°18' E 001°30'0 0.0 100 / 9 27.0 6.0 2.3
2018-Feb-19 03:00N 59°18' E 001°30'0 0.0 110 / 9 27.0 6.1 2.3
2018-Feb-19 02:00N 59°18' E 001°30'0 0.0 120 / 8 27.0 6.1 2.3
2018-Feb-19 01:00N 59°18' E 001°30'0 0.0 140 / 9 27.0 6.1 2.3
2018-Feb-19 00:00N 59°18' E 001°30'0 0.0 100 / 10 27.0 5.7 1.8
2018-Feb-18 23:00N 59°18' E 001°30'0 0.0 140 / 8 27.0 5.5 1.6
2018-Feb-18 22:00N 59°18' E 001°30'0 0.0 130 / 9 27.0 6.4 2.4
2018-Feb-18 21:00N 59°18' E 001°30'0 0.0 150 / 10 27.0 6.2 2.2
2018-Feb-18 20:00N 59°18' E 001°30'0 0.0 140 / 8 27.0 6.2 2.0
2018-Feb-18 19:00N 59°18' E 001°30'0 0.0 130 / 6 27.0 6.0 1.8
2018-Feb-18 18:00N 59°18' E 001°30'0 0.0 170 / 7 27.0 5.9 1.7
2018-Feb-18 17:00N 59°18' E 001°30'0 0.0 180 / 6 27.0 6.0 1.7
2018-Feb-18 16:00N 59°18' E 001°30'0 0.0 200 / 6 27.0 6.0 1.7
2018-Feb-18 15:00N 59°18' E 001°30'0 0.0 220 / 7 27.0 6.0 1.7
2018-Feb-18 14:00N 59°18' E 001°30'0 0.0 210 / 6 27.0 6.0 1.5
2018-Feb-18 13:00N 59°18' E 001°30'0 0.0 230 / 7 27.0 6.0 1.4
2018-Feb-18 12:00N 59°18' E 001°30'0 0.0 230 / 8 27.0 5.9 1.2
2018-Feb-18 11:00N 59°18' E 001°30'0 0.0 240 / 9 27.0 5.9 1.1
2018-Feb-18 10:00N 59°18' E 001°30'0 0.0 240 / 10 27.0 6.0 1.2
2018-Feb-18 09:00N 59°18' E 001°30'0 0.0 250 / 10 27.0 5.8 1.0
2018-Feb-18 08:00N 59°18' E 001°30'0 0.0 270 / 12 27.0 5.9 1.2
2018-Feb-18 07:00N 59°18' E 001°30'0 0.0 270 / 14 27.0 5.8 1.4
2018-Feb-18 06:00N 59°18' E 001°30'0 0.0 260 / 13 27.0 5.7 1.5
2018-Feb-18 05:00N 59°18' E 001°30'0 0.0 270 / 13 10.8 5.6 1.6
2018-Feb-18 04:00N 59°18' E 001°30'0 0.0 290 / 11 10.8 5.6 1.8
2018-Feb-18 03:00N 59°18' E 001°30'0 0.0 290 / 13 10.8 5.7 2.0
2018-Feb-18 02:00N 59°18' E 001°30'0 0.0 220 / 10 27.0 5.4 1.6
2018-Feb-18 01:00N 59°18' E 001°30'0 0.0 280 / 16 10.8 6.2 2.4
2018-Feb-18 00:00N 59°18' E 001°30'0 0.0 260 / 15 10.8 6.7 2.8
2018-Feb-17 23:00N 59°18' E 001°30'0 0.0 240 / 15 10.8 6.4 2.8
2018-Feb-17 22:00N 59°18' E 001°30'0 0.0 240 / 15 10.8 6.3 3.0
2018-Feb-17 21:00N 59°18' E 001°30'0 0.0 230 / 16 10.8 6.1 3.0
2018-Feb-17 20:00N 59°18' E 001°30'0 0.0 220 / 16 10.8 6.4 3.2
2018-Feb-17 19:00N 59°18' E 001°30'0 0.0 230 / 17 27.0 5.9 2.8
2018-Feb-17 18:00N 59°18' E 001°30'0 0.0 210 / 19 10.8 6.4 3.1
2018-Feb-17 17:00N 59°18' E 001°30'0 0.0 220 / 20 10.8 6.4 3.0
2018-Feb-17 16:00N 59°18' E 001°30'0 0.0 210 / 21 10.8 6.3 3.0
2018-Feb-17 15:00N 59°18' E 001°30'0 0.0 210 / 22 10.8 6.1 3.4
2018-Feb-17 14:00N 59°18' E 001°30'0 0.0 210 / 22 10.8 6.3 3.8
2018-Feb-17 13:00N 59°18' E 001°30'0 0.0 200 / 23 10.8 6.0 3.5
2018-Feb-17 12:00N 59°18' E 001°30'0 0.0 200 / 23 2.2 5.5 3.0
2018-Feb-17 11:00N 59°18' E 001°30'0 0.0 200 / 22 5.4 5.8 3.1
2018-Feb-17 10:00N 59°18' E 001°30'0 0.0 200 / 23 5.4 6.1 3.3
2018-Feb-17 09:00N 59°18' E 001°30'0 0.0 200 / 22 10.8 6.5 3.7
2018-Feb-17 08:00N 59°18' E 001°30'0 0.0 190 / 21 5.4 6.5 3.6
2018-Feb-17 07:00N 59°18' E 001°30'0 0.0 190 / 26 2.2 6.9 3.7
2018-Feb-17 06:00N 59°18' E 001°30'0 0.0 190 / 26 5.4 6.9 3.7
2018-Feb-17 05:00N 59°18' E 001°30'0 0.0 200 / 26 10.8 6.5 3.1
2018-Feb-17 04:00N 59°18' E 001°30'0 0.0 190 / 26 5.4 7.0 3.4
2018-Feb-17 03:00N 59°18' E 001°30'0 0.0 190 / 23 5.4 7.1 3.4
2018-Feb-17 02:00N 59°18' E 001°30'0 0.0 190 / 21 5.4 7.0 3.2
2018-Feb-17 01:00N 59°18' E 001°30'0 0.0 190 / 20 10.8 6.8 2.9
2018-Feb-17 00:00N 59°18' E 001°30'0 0.0 190 / 19 10.8 6.4 2.4
2018-Feb-16 23:00N 59°18' E 001°30'0 0.0 190 / 17 10.8 6.4 2.3
2018-Feb-16 22:00N 59°18' E 001°30'0 0.0 200 / 17 10.8 6.2 2.0
2018-Feb-16 21:00N 59°18' E 001°30'0 0.0 210 / 17 10.8 6.2 2.0
2018-Feb-16 20:00N 59°18' E 001°30'0 0.0 220 / 14 10.8 6.0 1.8
2018-Feb-16 19:00N 59°18' E 001°30'0 0.0 220 / 15 10.8 6.0 1.8
2018-Feb-16 18:00N 59°18' E 001°30'0 0.0 230 / 16 10.8 6.0 1.8
2018-Feb-16 17:00N 59°18' E 001°30'0 0.0 240 / 16 10.8 6.0 1.8
2018-Feb-16 16:00N 59°18' E 001°30'0 0.0 240 / 15 10.8 6.1 1.8
2018-Feb-16 15:00N 59°18' E 001°30'0 0.0 240 / 16 10.8 6.1 1.7
2018-Feb-16 14:00N 59°18' E 001°30'0 0.0 240 / 16 10.8 6.2 1.5
2018-Feb-16 13:00N 59°18' E 001°30'0 0.0 240 / 16 27.0 6.0 1.1
2018-Feb-16 12:00N 59°18' E 001°30'0 0.0 250 / 16 27.0 6.1 1.2
2018-Feb-16 11:00N 59°18' E 001°30'0 0.0 260 / 18 10.8 6.1 1.3
2018-Feb-16 10:00N 59°18' E 001°30'0 0.0 260 / 17 10.8 6.0 1.4
2018-Feb-16 09:00N 59°18' E 001°30'0 0.0 260 / 18 10.8 6.1 1.7
2018-Feb-16 08:00N 59°18' E 001°30'0 0.0 270 / 21 5.4 6.2 2.2
2018-Feb-16 07:00N 59°18' E 001°30'0 0.0 260 / 19 5.4 6.5 2.7
2018-Feb-16 06:00N 59°18' E 001°30'0 0.0 260 / 22 5.4 6.7 3.0
2018-Feb-16 05:00N 59°18' E 001°30'0 0.0 270 / 22 2.2 6.8 3.3
2018-Feb-16 04:00N 59°18' E 001°30'0 0.0 270 / 22 5.4 6.8 3.4
2018-Feb-16 03:00N 59°18' E 001°30'0 0.0 270 / 25 5.4 6.8 3.6
2018-Feb-16 02:00N 59°18' E 001°30'0 0.0 260 / 25 5.4 6.9 3.7
2018-Feb-16 01:00N 59°18' E 001°30'0 0.0 270 / 24 5.4 6.7 3.7
2018-Feb-16 00:00N 59°18' E 001°30'0 0.0 260 / 23 5.4 6.8 3.8
2018-Feb-15 23:00N 59°18' E 001°30'0 0.0 250 / 22 5.4 6.7 3.7
2018-Feb-15 22:00N 59°18' E 001°30'0 0.0 250 / 22 10.8 6.5 3.5
2018-Feb-15 21:00N 59°18' E 001°30'0 0.0 220 / 16 2.2 5.4 1.9
2018-Feb-15 20:00N 59°18' E 001°30'0 0.0 220 / 20 5.4 5.0 1.2
2018-Feb-15 19:00N 59°18' E 001°30'0 0.0 210 / 23 10.8 5.9 1.7
2018-Feb-15 18:00N 59°18' E 001°30'0 0.0 220 / 22 10.8 5.8 1.6
2018-Feb-15 17:00N 59°18' E 001°30'0 0.0 220 / 22 10.8 6.1 1.7
2018-Feb-15 16:00N 59°18' E 001°30'0 0.0 220 / 22 10.8 6.0 1.4
2018-Feb-15 15:00N 59°18' E 001°30'0 0.0 220 / 23 10.8 5.9 1.1
2018-Feb-15 14:00N 59°18' E 001°30'0 0.0 210 / 24 10.8 5.9 1.2
2018-Feb-15 13:00N 59°18' E 001°30'0 0.0 210 / 23 5.4 6.2 1.6
2018-Feb-15 12:00N 59°18' E 001°30'0 0.0 210 / 26 10.8 6.3 2.3
2018-Feb-15 11:00N 59°18' E 001°30'0 0.0 210 / 25 10.8 6.2 3.0
2018-Feb-15 10:00N 59°18' E 001°30'0 0.0 200 / 23 10.8 6.2 3.7
2018-Feb-15 09:00N 59°18' E 001°30'0 0.0 180 / 16 10.8 4.9 2.4
2018-Feb-15 08:00N 59°18' E 001°30'0 0.0 230 / 26 5.4 4.9 2.5
2018-Feb-15 07:00N 59°18' E 001°30'0 0.0 190 / 23 5.4 6.6 4.4
2018-Feb-15 06:00N 59°18' E 001°30'0 0.0 180 / 21 5.4 6.6 4.5
2018-Feb-15 05:00N 59°18' E 001°30'0 0.0 170 / 22 5.4 6.6 4.6
2018-Feb-15 04:00N 59°18' E 001°30'0 0.0 170 / 25 5.4 6.6 4.5
2018-Feb-15 03:00N 59°18' E 001°30'0 0.0 170 / 25 2.2 6.3 4.2
2018-Feb-15 02:00N 59°18' E 001°30'0 0.0 170 / 32 2.2 6.0 3.8
2018-Feb-15 01:00N 59°18' E 001°30'0 0.0 170 / 33 2.2 5.5 3.3
2018-Feb-15 00:00N 59°18' E 001°30'0 0.0 180 / 40 1.1 5.0 2.9
2018-Feb-14 23:00N 59°18' E 001°30'0 0.0 170 / 39 1.1 4.9 2.7
2018-Feb-14 22:00N 59°18' E 001°30'0 0.0 170 / 39 1.1 5.2 2.9
2018-Feb-14 21:00N 59°18' E 001°30'   160 / 41 1.1 5.0 2.6
Track history (hours):
 
Tides and Currents Weather Stations Pressure Air Temp Water Temp Dewpoint Dewpoint Depression Visibility Wind Speed Wind Dir Waves Ship Positions

Gryphon A

Last reported at 2018-Feb-24 21:00 UTC. Time now 2018-Feb-24 22:15 UTC.
Position N 59°18' E 001°30'.

Length 260 m; draft 13.5 m.

Type: Ship (hazmat cat A). MMSI: 235010630.

Wind from 160 at 20 knots

Air temperature 4.5 ° C
Visibility: greater than 10.8 NM
Dewpoint 0.3 ° C

Date/timePositionNaut miles runAvg speedWind from/ knotsBaromVisibWave heightAir tempDewpointWater temp
2018-Feb-24 21:00N 59°18' E 001°30'0 0.0 160 / 20 10.8 4.5 0.3
2018-Feb-24 20:00N 59°18' E 001°30'0 0.0 160 / 20 10.8 4.5 0.3
2018-Feb-24 19:00N 59°18' E 001°30'0 0.0 150 / 22 10.8 4.5 0.3
2018-Feb-24 18:00N 59°18' E 001°30'0 0.0 160 / 21 10.8 4.8 0.2
2018-Feb-24 17:00N 59°18' E 001°30'0 0.0 160 / 21 10.8 5.1-0.1
2018-Feb-24 16:00N 59°18' E 001°30'0 0.0 170 / 22 10.8 5.4 0.2
2018-Feb-24 15:00N 59°18' E 001°30'0 0.0 170 / 23 10.8 5.4 0.1
2018-Feb-24 14:00N 59°18' E 001°30'0 0.0 170 / 21 10.8 5.5 0.1
2018-Feb-24 13:00N 59°18' E 001°30'0 0.0 170 / 22 10.8 5.5 0.2
2018-Feb-24 12:00N 59°18' E 001°30'0 0.0 180 / 22 10.8 5.4 0.2
2018-Feb-24 11:00N 59°18' E 001°30'0 0.0 170 / 23 10.8 5.3 0.2
2018-Feb-24 10:00N 59°18' E 001°30'0 0.0 170 / 24 10.8 5.3 0.4
2018-Feb-24 09:00N 59°18' E 001°30'0 0.0 160 / 23 10.8 5.3 0.3
2018-Feb-24 08:00N 59°18' E 001°30'0 0.0 160 / 22 10.8 5.2 0.2
2018-Feb-24 07:00N 59°18' E 001°30'0 0.0 160 / 22 10.8 5.0 0.2
2018-Feb-24 06:00N 59°18' E 001°30'0 0.0 160 / 22 10.8 5.1 0.4
2018-Feb-24 05:00N 59°18' E 001°30'0 0.0 160 / 22 27.0 5.2 0.7
2018-Feb-24 04:00N 59°18' E 001°30'0 0.0 160 / 20 27.0 5.3 0.9
2018-Feb-24 03:00N 59°18' E 001°30'0 0.0 180 / 21 27.0 5.4 1.1
2018-Feb-24 02:00N 59°18' E 001°30'0 0.0 160 / 19 27.0 5.3 0.9
2018-Feb-24 01:00N 59°18' E 001°30'0 0.0
2018-Feb-24 00:00N 59°18' E 001°30'0 0.0
2018-Feb-23 23:00N 59°18' E 001°30'0 0.0 170 / 20 27.0 5.7 0.7
2018-Feb-23 22:00N 59°18' E 001°30'0 0.0 170 / 19 27.0 5.7 0.8
2018-Feb-23 21:00N 59°18' E 001°30'0 0.0 170 / 19 10.8 5.8 1.1
2018-Feb-23 20:00N 59°18' E 001°30'0 0.0 180 / 18 10.8 5.8 1.0
2018-Feb-23 19:00N 59°18' E 001°30'0 0.0 180 / 18 27.0 5.9 1.0
2018-Feb-23 18:00N 59°18' E 001°30'0 0.0 190 / 20 10.8 5.8 0.9
2018-Feb-23 17:00N 59°18' E 001°30'0 0.0 200 / 21 10.8 5.7 0.9
2018-Feb-23 16:00N 59°18' E 001°30'0 0.0 200 / 23 10.8 5.7 0.9
2018-Feb-23 15:00N 59°18' E 001°30'0 0.0 190 / 22 10.8 5.6 0.9
2018-Feb-23 14:00N 59°18' E 001°30'0 0.0 190 / 24 10.8 5.7 1.0
2018-Feb-23 13:00N 59°18' E 001°30'0 0.0 190 / 25 10.8 5.7 1.0
2018-Feb-23 12:00N 59°18' E 001°30'0 0.0 200 / 26 10.8 5.7 1.1
2018-Feb-23 11:00N 59°18' E 001°30'0 0.0 190 / 25 10.8 5.7 1.2
2018-Feb-23 10:00N 59°18' E 001°30'0 0.0 190 / 23 10.8 5.7 1.2
2018-Feb-23 09:00N 59°18' E 001°30'0 0.0 190 / 22 10.8 5.7 1.2
2018-Feb-23 08:00N 59°18' E 001°30'0 0.0 190 / 22 10.8 5.6 1.2
2018-Feb-23 07:00N 59°18' E 001°30'0 0.0 190 / 22 10.8 5.6 1.2
2018-Feb-23 06:00N 59°18' E 001°30'0 0.0 190 / 20 10.8 5.6 1.2
2018-Feb-23 05:00N 59°18' E 001°30'0 0.0 200 / 21 10.8 5.5 1.1
2018-Feb-23 04:00N 59°18' E 001°30'0 0.0 200 / 21 27.0 5.5 1.0
2018-Feb-23 03:00N 59°18' E 001°30'0 0.0 190 / 21 10.8 5.6 1.2
2018-Feb-23 02:00N 59°18' E 001°30'0 0.0 210 / 22 10.8 5.5 1.7
2018-Feb-23 01:00N 59°18' E 001°30'0 0.0 190 / 24 5.4 5.2 1.6
2018-Feb-23 00:00N 59°18' E 001°30'0 0.0 190 / 21 27.0 5.4 1.9
2018-Feb-22 23:00N 59°18' E 001°30'0 0.0 180 / 21 10.8 5.3 1.7
2018-Feb-22 22:00N 59°18' E 001°30'0 0.0 170 / 20 10.8 5.4 1.6
2018-Feb-22 21:00N 59°18' E 001°30'0 0.0 180 / 19 10.8 5.4 1.5
2018-Feb-22 20:00N 59°18' E 001°30'0 0.0 180 / 20 10.8 5.1 1.3
2018-Feb-22 19:00N 59°18' E 001°30'0 0.0 170 / 20 10.8 5.6 1.8
2018-Feb-22 18:00N 59°18' E 001°30'0 0.0 180 / 21 10.8 5.7 1.8
2018-Feb-22 17:00N 59°18' E 001°30'0 0.0 180 / 20 10.8 5.4 1.5
2018-Feb-22 16:00N 59°18' E 001°30'0 0.0 180 / 16 10.8 5.3 1.2
2018-Feb-22 15:00N 59°18' E 001°30'0 0.0 190 / 16 5.4 5.8 1.4
2018-Feb-22 14:00N 59°18' E 001°30'0 0.0 180 / 18 10.8 5.8 1.5
2018-Feb-22 13:00N 59°18' E 001°30'0 0.0 180 / 18 10.8 5.8 1.6
2018-Feb-22 12:00N 59°18' E 001°30'0 0.0 180 / 17 10.8 5.7 1.4
2018-Feb-22 11:00N 59°18' E 001°30'0 0.0 180 / 18 10.8 5.7 1.2
2018-Feb-22 10:00N 59°18' E 001°30'0 0.0 180 / 16 27.0 5.7 1.2
2018-Feb-22 09:00N 59°18' E 001°30'0 0.0 180 / 16 27.0 5.6 1.1
2018-Feb-22 08:00N 59°18' E 001°30'0 0.0 170 / 13 27.0 5.6 1.2
2018-Feb-22 07:00N 59°18' E 001°30'0 0.0 170 / 10 27.0 5.6 1.2
2018-Feb-22 06:00N 59°18' E 001°30'0 0.0 170 / 9 10.8 5.6 1.2
2018-Feb-22 05:00N 59°18' E 001°30'0 0.0 170 / 8 27.0 5.5 1.2
2018-Feb-22 04:00N 59°18' E 001°30'0 0.0 180 / 8 10.8 5.7 1.4
2018-Feb-22 03:00N 59°18' E 001°30'0 0.0 190 / 8 10.8 5.6 1.5
2018-Feb-22 02:00N 59°18' E 001°30'0 0.0 190 / 8 10.8 5.5 1.6
2018-Feb-22 01:00N 59°18' E 001°30'0 0.0 160 / 8 10.8 5.7 1.8
2018-Feb-22 00:00N 59°18' E 001°30'0 0.0 140 / 6 10.8 5.8 1.8
2018-Feb-21 23:00N 59°18' E 001°30'0 0.0 140 / 6 10.8 5.8 1.9
2018-Feb-21 22:00N 59°18' E 001°30'0 0.0 130 / 6 10.8 5.7 1.8
2018-Feb-21 21:00N 59°18' E 001°30'0 0.0 120 / 2 10.8 5.9 2.0
2018-Feb-21 20:00N 59°18' E 001°30'0 0.0 060 / 2 27.0 5.9 1.9
2018-Feb-21 19:00N 59°18' E 001°30'0 0.0 010 / 2 27.0 5.8 1.7
2018-Feb-21 18:00N 59°18' E 001°30'0 0.0 310 / 2 10.8 5.8 1.7
2018-Feb-21 17:00N 59°18' E 001°30'0 0.0 320 / 3 27.0 6.1 1.8
2018-Feb-21 16:00N 59°18' E 001°30'0 0.0 310 / 2 10.8 6.2 1.9
2018-Feb-21 15:00N 59°18' E 001°30'0 0.0 270 / 3 27.0 5.8 1.6
2018-Feb-21 14:00N 59°18' E 001°30'0 0.0 280 / 5 27.0 5.5 1.3
2018-Feb-21 13:00N 59°18' E 001°30'0 0.0 330 / 10 10.8 6.1 1.4
2018-Feb-21 12:00N 59°18' E 001°30'0 0.0 310 / 5 27.0 6.0 1.2
2018-Feb-21 11:00N 59°18' E 001°30'0 0.0 320 / 7 27.0 5.6 1.1
2018-Feb-21 10:00N 59°18' E 001°30'0 0.0 320 / 8 27.0 6.1 1.8
2018-Feb-21 09:00N 59°18' E 001°30'0 0.0 360 / 9 27.0 6.0 1.9
2018-Feb-21 08:00N 59°18' E 001°30'0 0.0 330 / 10 10.8 6.3 2.2
2018-Feb-21 07:00N 59°18' E 001°30'0 0.0 330 / 12 10.8 6.4 2.1
2018-Feb-21 06:00N 59°18' E 001°30'0 0.0 340 / 10 10.8 6.2 2.0
2018-Feb-21 05:00N 59°18' E 001°30'0 0.0 330 / 12 10.8 6.5 2.3
2018-Feb-21 04:00N 59°18' E 001°30'0 0.0 330 / 13 10.8 6.5 2.6
2018-Feb-21 03:00N 59°18' E 001°30'0 0.0 320 / 14 10.8 6.5 3.1
2018-Feb-21 02:00N 59°18' E 001°30'0 0.0 320 / 18 10.8 6.2 3.4
2018-Feb-21 01:00N 59°18' E 001°30'0 0.0 340 / 15 5.4 6.1 3.8
2018-Feb-21 00:00N 59°18' E 001°30'0 0.0 330 / 13 5.4 6.2 4.2
2018-Feb-20 23:00N 59°18' E 001°30'0 0.0 330 / 8 5.4 6.7 4.9
2018-Feb-20 22:00N 59°18' E 001°30'0 0.0 330 / 6 5.4 6.4 4.8
2018-Feb-20 21:00N 59°18' E 001°30'0 0.0 290 / 5 10.8 6.2 4.7
2018-Feb-20 20:00N 59°18' E 001°30'0 0.0 320 / 5 10.8 5.6 4.2
2018-Feb-20 19:00N 59°18' E 001°30'0 0.0 200 / 15 10.8 5.5 4.0
2018-Feb-20 18:00N 59°18' E 001°30'0 0.0 200 / 18 5.4 5.0 3.2
2018-Feb-20 17:00N 59°18' E 001°30'0 0.0 190 / 18 1.1 4.7 2.4
2018-Feb-20 16:00N 59°18' E 001°30'0 0.0 190 / 19 5.4 4.5 1.9
2018-Feb-20 15:00N 59°18' E 001°30'0 0.0 200 / 19 5.4 4.6 2.0
2018-Feb-20 14:00N 59°18' E 001°30'0 0.0 190 / 20 10.8 4.5 2.1
2018-Feb-20 13:00N 59°18' E 001°30'0 0.0 190 / 20 10.8 4.6 2.2
2018-Feb-20 12:00N 59°18' E 001°30'0 0.0 180 / 21 5.4 4.5 2.1
2018-Feb-20 11:00N 59°18' E 001°30'0 0.0 170 / 20 2.2 4.4 1.9
2018-Feb-20 10:00N 59°18' E 001°30'0 0.0 170 / 22 2.2 4.3 1.7
2018-Feb-20 09:00N 59°18' E 001°30'0 0.0 160 / 23 2.2 4.0 1.3
2018-Feb-20 08:00N 59°18' E 001°30'0 0.0 170 / 21 2.2 3.7 0.9
2018-Feb-20 07:00N 59°18' E 001°30'0 0.0 160 / 24 2.2 3.9 0.8
2018-Feb-20 06:00N 59°18' E 001°30'0 0.0 160 / 24 2.2 4.1 0.6
2018-Feb-20 05:00N 59°18' E 001°30'0 0.0 150 / 26 5.4 4.3 0.5
2018-Feb-20 04:00N 59°18' E 001°30'0 0.0 160 / 28 5.4 4.4 0.5
2018-Feb-20 03:00N 59°18' E 001°30'0 0.0 150 / 26 5.4 4.7 0.7
2018-Feb-20 02:00N 59°18' E 001°30'0 0.0 150 / 27 10.8 4.7 0.6
2018-Feb-20 01:00N 59°18' E 001°30'0 0.0 150 / 27 10.8 4.8 0.6
2018-Feb-20 00:00N 59°18' E 001°30'0 0.0 150 / 26 10.8 4.9 0.8
2018-Feb-19 23:00N 59°18' E 001°30'0 0.0 150 / 27 10.8 5.0 1.0
2018-Feb-19 22:00N 59°18' E 001°30'0 0.0 140 / 24 10.8 4.9 1.1
2018-Feb-19 21:00N 59°18' E 001°30'0 0.0 140 / 24 10.8 4.7 1.1
2018-Feb-19 20:00N 59°18' E 001°30'0 0.0 150 / 21 10.8 4.9 1.5
2018-Feb-19 19:00N 59°18' E 001°30'0 0.0 140 / 21 10.8 5.1 1.8
2018-Feb-19 18:00N 59°18' E 001°30'0 0.0 140 / 18 10.8 5.5 2.2
2018-Feb-19 17:00N 59°18' E 001°30'0 0.0 140 / 16 10.8 5.8 2.4
2018-Feb-19 16:00N 59°18' E 001°30'0 0.0 130 / 14 10.8 5.9 2.3
2018-Feb-19 15:00N 59°18' E 001°30'0 0.0 130 / 14 10.8 6.3 2.3
2018-Feb-19 14:00N 59°18' E 001°30'0 0.0 110 / 12 27.0 5.8 1.8
2018-Feb-19 13:00N 59°18' E 001°30'0 0.0 100 / 14 27.0 5.9 2.1
2018-Feb-19 12:00N 59°18' E 001°30'0 0.0 100 / 13 27.0 5.8 2.2
2018-Feb-19 11:00N 59°18' E 001°30'0 0.0 120 / 11 27.0 5.6 2.2
2018-Feb-19 10:00N 59°18' E 001°30'0 0.0 100 / 12 27.0 5.8 2.5
2018-Feb-19 09:00N 59°18' E 001°30'0 0.0 110 / 13 27.0 5.9 2.6
2018-Feb-19 08:00N 59°18' E 001°30'0 0.0 100 / 12 27.0 6.0 2.6
2018-Feb-19 07:00N 59°18' E 001°30'0 0.0 100 / 10 10.8 6.2 2.7
2018-Feb-19 06:00N 59°18' E 001°30'0 0.0 100 / 11 27.0 6.0 2.5
2018-Feb-19 05:00N 59°18' E 001°30'0 0.0 110 / 10 27.0 6.0 2.4
2018-Feb-19 04:00N 59°18' E 001°30'0 0.0 100 / 9 27.0 6.0 2.3
2018-Feb-19 03:00N 59°18' E 001°30'0 0.0 110 / 9 27.0 6.1 2.3
2018-Feb-19 02:00N 59°18' E 001°30'0 0.0 120 / 8 27.0 6.1 2.3
2018-Feb-19 01:00N 59°18' E 001°30'0 0.0 140 / 9 27.0 6.1 2.3
2018-Feb-19 00:00N 59°18' E 001°30'0 0.0 100 / 10 27.0 5.7 1.8
2018-Feb-18 23:00N 59°18' E 001°30'0 0.0 140 / 8 27.0 5.5 1.6
2018-Feb-18 22:00N 59°18' E 001°30'0 0.0 130 / 9 27.0 6.4 2.4
2018-Feb-18 21:00N 59°18' E 001°30'0 0.0 150 / 10 27.0 6.2 2.2
2018-Feb-18 20:00N 59°18' E 001°30'0 0.0 140 / 8 27.0 6.2 2.0
2018-Feb-18 19:00N 59°18' E 001°30'0 0.0 130 / 6 27.0 6.0 1.8
2018-Feb-18 18:00N 59°18' E 001°30'0 0.0 170 / 7 27.0 5.9 1.7
2018-Feb-18 17:00N 59°18' E 001°30'0 0.0 180 / 6 27.0 6.0 1.7
2018-Feb-18 16:00N 59°18' E 001°30'0 0.0 200 / 6 27.0 6.0 1.7
2018-Feb-18 15:00N 59°18' E 001°30'0 0.0 220 / 7 27.0 6.0 1.7
2018-Feb-18 14:00N 59°18' E 001°30'0 0.0 210 / 6 27.0 6.0 1.5
2018-Feb-18 13:00N 59°18' E 001°30'0 0.0 230 / 7 27.0 6.0 1.4
2018-Feb-18 12:00N 59°18' E 001°30'0 0.0 230 / 8 27.0 5.9 1.2
2018-Feb-18 11:00N 59°18' E 001°30'0 0.0 240 / 9 27.0 5.9 1.1
2018-Feb-18 10:00N 59°18' E 001°30'0 0.0 240 / 10 27.0 6.0 1.2
2018-Feb-18 09:00N 59°18' E 001°30'0 0.0 250 / 10 27.0 5.8 1.0
2018-Feb-18 08:00N 59°18' E 001°30'0 0.0 270 / 12 27.0 5.9 1.2
2018-Feb-18 07:00N 59°18' E 001°30'0 0.0 270 / 14 27.0 5.8 1.4
2018-Feb-18 06:00N 59°18' E 001°30'0 0.0 260 / 13 27.0 5.7 1.5
2018-Feb-18 05:00N 59°18' E 001°30'0 0.0 270 / 13 10.8 5.6 1.6
2018-Feb-18 04:00N 59°18' E 001°30'0 0.0 290 / 11 10.8 5.6 1.8
2018-Feb-18 03:00N 59°18' E 001°30'0 0.0 290 / 13 10.8 5.7 2.0
2018-Feb-18 02:00N 59°18' E 001°30'0 0.0 220 / 10 27.0 5.4 1.6
2018-Feb-18 01:00N 59°18' E 001°30'0 0.0 280 / 16 10.8 6.2 2.4
2018-Feb-18 00:00N 59°18' E 001°30'0 0.0 260 / 15 10.8 6.7 2.8
2018-Feb-17 23:00N 59°18' E 001°30'0 0.0 240 / 15 10.8 6.4 2.8
2018-Feb-17 22:00N 59°18' E 001°30'0 0.0 240 / 15 10.8 6.3 3.0
2018-Feb-17 21:00N 59°18' E 001°30'0 0.0 230 / 16 10.8 6.1 3.0
2018-Feb-17 20:00N 59°18' E 001°30'0 0.0 220 / 16 10.8 6.4 3.2
2018-Feb-17 19:00N 59°18' E 001°30'0 0.0 230 / 17 27.0 5.9 2.8
2018-Feb-17 18:00N 59°18' E 001°30'0 0.0 210 / 19 10.8 6.4 3.1
2018-Feb-17 17:00N 59°18' E 001°30'0 0.0 220 / 20 10.8 6.4 3.0
2018-Feb-17 16:00N 59°18' E 001°30'0 0.0 210 / 21 10.8 6.3 3.0
2018-Feb-17 15:00N 59°18' E 001°30'0 0.0 210 / 22 10.8 6.1 3.4
2018-Feb-17 14:00N 59°18' E 001°30'0 0.0 210 / 22 10.8 6.3 3.8
2018-Feb-17 13:00N 59°18' E 001°30'0 0.0 200 / 23 10.8 6.0 3.5
2018-Feb-17 12:00N 59°18' E 001°30'0 0.0 200 / 23 2.2 5.5 3.0
2018-Feb-17 11:00N 59°18' E 001°30'0 0.0 200 / 22 5.4 5.8 3.1
2018-Feb-17 10:00N 59°18' E 001°30'0 0.0 200 / 23 5.4 6.1 3.3
2018-Feb-17 09:00N 59°18' E 001°30'0 0.0 200 / 22 10.8 6.5 3.7
2018-Feb-17 08:00N 59°18' E 001°30'0 0.0 190 / 21 5.4 6.5 3.6
2018-Feb-17 07:00N 59°18' E 001°30'0 0.0 190 / 26 2.2 6.9 3.7
2018-Feb-17 06:00N 59°18' E 001°30'0 0.0 190 / 26 5.4 6.9 3.7
2018-Feb-17 05:00N 59°18' E 001°30'0 0.0 200 / 26 10.8 6.5 3.1
2018-Feb-17 04:00N 59°18' E 001°30'0 0.0 190 / 26 5.4 7.0 3.4
2018-Feb-17 03:00N 59°18' E 001°30'0 0.0 190 / 23 5.4 7.1 3.4
2018-Feb-17 02:00N 59°18' E 001°30'0 0.0 190 / 21 5.4 7.0 3.2
2018-Feb-17 01:00N 59°18' E 001°30'0 0.0 190 / 20 10.8 6.8 2.9
2018-Feb-17 00:00N 59°18' E 001°30'0 0.0 190 / 19 10.8 6.4 2.4
2018-Feb-16 23:00N 59°18' E 001°30'0 0.0 190 / 17 10.8 6.4 2.3
2018-Feb-16 22:00N 59°18' E 001°30'0 0.0 200 / 17 10.8 6.2 2.0
2018-Feb-16 21:00N 59°18' E 001°30'0 0.0 210 / 17 10.8 6.2 2.0
2018-Feb-16 20:00N 59°18' E 001°30'0 0.0 220 / 14 10.8 6.0 1.8
2018-Feb-16 19:00N 59°18' E 001°30'0 0.0 220 / 15 10.8 6.0 1.8
2018-Feb-16 18:00N 59°18' E 001°30'0 0.0 230 / 16 10.8 6.0 1.8
2018-Feb-16 17:00N 59°18' E 001°30'0 0.0 240 / 16 10.8 6.0 1.8
2018-Feb-16 16:00N 59°18' E 001°30'0 0.0 240 / 15 10.8 6.1 1.8
2018-Feb-16 15:00N 59°18' E 001°30'0 0.0 240 / 16 10.8 6.1 1.7
2018-Feb-16 14:00N 59°18' E 001°30'0 0.0 240 / 16 10.8 6.2 1.5
2018-Feb-16 13:00N 59°18' E 001°30'0 0.0 240 / 16 27.0 6.0 1.1
2018-Feb-16 12:00N 59°18' E 001°30'0 0.0 250 / 16 27.0 6.1 1.2
2018-Feb-16 11:00N 59°18' E 001°30'0 0.0 260 / 18 10.8 6.1 1.3
2018-Feb-16 10:00N 59°18' E 001°30'0 0.0 260 / 17 10.8 6.0 1.4
2018-Feb-16 09:00N 59°18' E 001°30'0 0.0 260 / 18 10.8 6.1 1.7
2018-Feb-16 08:00N 59°18' E 001°30'0 0.0 270 / 21 5.4 6.2 2.2
2018-Feb-16 07:00N 59°18' E 001°30'0 0.0 260 / 19 5.4 6.5 2.7
2018-Feb-16 06:00N 59°18' E 001°30'0 0.0 260 / 22 5.4 6.7 3.0
2018-Feb-16 05:00N 59°18' E 001°30'0 0.0 270 / 22 2.2 6.8 3.3
2018-Feb-16 04:00N 59°18' E 001°30'0 0.0 270 / 22 5.4 6.8 3.4
2018-Feb-16 03:00N 59°18' E 001°30'0 0.0 270 / 25 5.4 6.8 3.6
2018-Feb-16 02:00N 59°18' E 001°30'0 0.0 260 / 25 5.4 6.9 3.7
2018-Feb-16 01:00N 59°18' E 001°30'0 0.0 270 / 24 5.4 6.7 3.7
2018-Feb-16 00:00N 59°18' E 001°30'0 0.0 260 / 23 5.4 6.8 3.8
2018-Feb-15 23:00N 59°18' E 001°30'0 0.0 250 / 22 5.4 6.7 3.7
2018-Feb-15 22:00N 59°18' E 001°30'0 0.0 250 / 22 10.8 6.5 3.5
2018-Feb-15 21:00N 59°18' E 001°30'0 0.0 220 / 16 2.2 5.4 1.9
2018-Feb-15 20:00N 59°18' E 001°30'0 0.0 220 / 20 5.4 5.0 1.2
2018-Feb-15 19:00N 59°18' E 001°30'0 0.0 210 / 23 10.8 5.9 1.7
2018-Feb-15 18:00N 59°18' E 001°30'0 0.0 220 / 22 10.8 5.8 1.6
2018-Feb-15 17:00N 59°18' E 001°30'0 0.0 220 / 22 10.8 6.1 1.7
2018-Feb-15 16:00N 59°18' E 001°30'0 0.0 220 / 22 10.8 6.0 1.4
2018-Feb-15 15:00N 59°18' E 001°30'0 0.0 220 / 23 10.8 5.9 1.1
2018-Feb-15 14:00N 59°18' E 001°30'0 0.0 210 / 24 10.8 5.9 1.2
2018-Feb-15 13:00N 59°18' E 001°30'0 0.0 210 / 23 5.4 6.2 1.6
2018-Feb-15 12:00N 59°18' E 001°30'0 0.0 210 / 26 10.8 6.3 2.3
2018-Feb-15 11:00N 59°18' E 001°30'0 0.0 210 / 25 10.8 6.2 3.0
2018-Feb-15 10:00N 59°18' E 001°30'0 0.0 200 / 23 10.8 6.2 3.7
2018-Feb-15 09:00N 59°18' E 001°30'0 0.0 180 / 16 10.8 4.9 2.4
2018-Feb-15 08:00N 59°18' E 001°30'0 0.0 230 / 26 5.4 4.9 2.5
2018-Feb-15 07:00N 59°18' E 001°30'0 0.0 190 / 23 5.4 6.6 4.4
2018-Feb-15 06:00N 59°18' E 001°30'0 0.0 180 / 21 5.4 6.6 4.5
2018-Feb-15 05:00N 59°18' E 001°30'0 0.0 170 / 22 5.4 6.6 4.6
2018-Feb-15 04:00N 59°18' E 001°30'0 0.0 170 / 25 5.4 6.6 4.5
2018-Feb-15 03:00N 59°18' E 001°30'0 0.0 170 / 25 2.2 6.3 4.2
2018-Feb-15 02:00N 59°18' E 001°30'0 0.0 170 / 32 2.2 6.0 3.8
2018-Feb-15 01:00N 59°18' E 001°30'0 0.0 170 / 33 2.2 5.5 3.3
2018-Feb-15 00:00N 59°18' E 001°30'0 0.0 180 / 40 1.1 5.0 2.9
2018-Feb-14 23:00N 59°18' E 001°30'0 0.0 170 / 39 1.1 4.9 2.7
2018-Feb-14 22:00N 59°18' E 001°30'0 0.0 170 / 39 1.1 5.2 2.9
2018-Feb-14 21:00N 59°18' E 001°30'   160 / 41 1.1 5.0 2.6

Dump ship's entire track history